createdAt,value
2018-05-09T00:01:19.165Z,2.30
2018-05-09T00:03:46.823Z,3.90
2018-05-09T00:06:14.512Z,2.60
2018-05-09T00:08:42.143Z,6.40
2018-05-09T00:11:09.669Z,3.17
2018-05-09T00:13:37.388Z,3.70
2018-05-09T00:16:04.943Z,2.90
2018-05-09T00:18:32.525Z,3.37
2018-05-09T00:21:00.111Z,6.73
2018-05-09T00:23:27.698Z,4.33
2018-05-09T00:25:55.245Z,3.00
2018-05-09T00:28:22.863Z,3.40
2018-05-09T00:30:50.409Z,3.03
2018-05-09T00:33:17.967Z,3.53
2018-05-09T00:35:45.487Z,6.20
2018-05-09T00:38:13.151Z,3.23
2018-05-09T00:40:40.765Z,2.87
2018-05-09T00:43:08.385Z,6.60
2018-05-09T00:45:35.942Z,4.07
2018-05-09T00:48:03.488Z,3.50
2018-05-09T00:50:31.100Z,3.93
2018-05-09T00:52:58.692Z,6.67
2018-05-09T00:55:26.276Z,3.47
2018-05-09T00:57:53.821Z,4.67
2018-05-09T01:00:21.398Z,6.03
2018-05-09T01:02:48.936Z,4.53
2018-05-09T01:05:16.488Z,3.83
2018-05-09T01:07:44.052Z,5.30
2018-05-09T01:10:11.598Z,3.40
2018-05-09T01:12:39.222Z,3.90
2018-05-09T01:15:06.769Z,5.57
2018-05-09T01:17:34.320Z,3.60
2018-05-09T01:20:01.888Z,3.47
2018-05-09T01:22:29.453Z,3.60
2018-05-09T01:24:57.018Z,3.27
2018-05-09T01:27:24.565Z,3.30
2018-05-09T01:29:52.130Z,4.37
2018-05-09T01:32:19.781Z,4.17
2018-05-09T01:34:47.319Z,4.97
2018-05-09T01:37:14.865Z,6.10
2018-05-09T01:39:42.400Z,3.83
2018-05-09T01:42:09.943Z,4.07
2018-05-09T01:44:37.505Z,5.87
2018-05-09T01:47:05.043Z,4.07
2018-05-09T01:49:33.319Z,5.67
2018-05-09T01:52:00.871Z,7.00
2018-05-09T01:54:28.457Z,5.33
2018-05-09T01:56:55.995Z,7.67
2018-05-09T01:59:23.518Z,5.83
2018-05-09T02:01:52.422Z,5.63
2018-05-09T02:04:19.980Z,3.83
2018-05-09T02:06:47.517Z,3.60
2018-05-09T02:09:15.965Z,6.03
2018-05-09T02:11:43.592Z,4.10
2018-05-09T02:14:11.185Z,5.37
2018-05-09T02:16:38.756Z,3.53
2018-05-09T02:19:06.304Z,3.87
2018-05-09T02:21:33.893Z,3.30
2018-05-09T02:24:01.538Z,5.63
2018-05-09T02:26:29.038Z,4.70
2018-05-09T02:28:56.601Z,4.13
2018-05-09T02:31:24.218Z,3.80
2018-05-09T02:33:51.778Z,3.70
2018-05-09T02:36:19.332Z,6.20
2018-05-09T02:38:46.883Z,5.93
2018-05-09T02:41:14.473Z,5.63
2018-05-09T02:43:42.012Z,4.27
2018-05-09T02:46:09.591Z,3.80
2018-05-09T02:48:37.181Z,5.70
2018-05-09T02:51:04.748Z,4.07
2018-05-09T02:53:32.301Z,5.83
2018-05-09T02:55:59.916Z,7.90
2018-05-09T02:58:27.458Z,9.07
2018-05-09T03:00:55.037Z,5.33
2018-05-09T03:03:22.593Z,4.30
2018-05-09T03:05:50.186Z,4.90
2018-05-09T03:08:18.561Z,6.10
2018-05-09T03:10:46.170Z,4.37
2018-05-09T03:13:13.973Z,6.70
2018-05-09T03:15:41.585Z,4.67
2018-05-09T03:18:09.123Z,6.60
2018-05-09T03:20:36.694Z,8.20
2018-05-09T03:23:04.235Z,5.97
2018-05-09T03:25:31.805Z,5.97
2018-05-09T03:27:59.355Z,4.20
2018-05-09T03:30:26.974Z,8.27
2018-05-09T03:32:54.556Z,6.57
2018-05-09T03:35:22.145Z,6.20
2018-05-09T03:37:49.752Z,4.87
2018-05-09T03:40:17.356Z,6.40
2018-05-09T03:42:44.912Z,3.83
2018-05-09T03:45:12.463Z,7.10
2018-05-09T03:47:40.038Z,3.90
2018-05-09T03:50:07.640Z,4.57
2018-05-09T03:52:35.272Z,10.23
2018-05-09T03:55:02.865Z,6.00
2018-05-09T03:57:30.482Z,7.03
2018-05-09T03:59:58.055Z,6.57
2018-05-09T04:02:44.158Z,7.40
2018-05-09T04:05:23.284Z,4.93
2018-05-09T04:08:02.602Z,5.33
2018-05-09T04:10:30.989Z,6.40
2018-05-09T04:12:58.582Z,8.50
2018-05-09T04:15:26.140Z,4.90
2018-05-09T04:17:53.733Z,12.37
2018-05-09T04:20:21.297Z,7.20
2018-05-09T04:22:48.900Z,8.07
2018-05-09T04:25:16.519Z,5.60
2018-05-09T04:27:44.105Z,6.07
2018-05-09T04:30:11.697Z,5.23
2018-05-09T04:32:39.267Z,5.80
2018-05-09T04:35:06.857Z,6.13
2018-05-09T04:37:34.445Z,5.57
2018-05-09T04:40:02.050Z,6.17
2018-05-09T04:42:29.618Z,9.00
2018-05-09T04:44:57.221Z,7.97
2018-05-09T04:47:24.820Z,11.70
2018-05-09T04:49:52.450Z,6.50
2018-05-09T04:52:20.094Z,9.17
2018-05-09T04:54:47.775Z,8.67
2018-05-09T04:57:15.415Z,5.93
2018-05-09T04:59:42.994Z,6.77
2018-05-09T05:02:10.623Z,5.67
2018-05-09T05:04:38.170Z,6.33
2018-05-09T05:07:05.786Z,9.00
2018-05-09T05:09:33.621Z,7.37
2018-05-09T05:12:02.579Z,10.37
2018-05-09T05:14:30.160Z,8.83
2018-05-09T05:19:29.552Z,7.57
2018-05-09T05:21:57.126Z,6.37
2018-05-09T05:24:24.747Z,8.10
2018-05-09T05:26:52.415Z,8.93
2018-05-09T05:29:21.343Z,5.20
2018-05-09T05:31:48.989Z,9.47
2018-05-09T05:34:17.036Z,12.60
2018-05-09T05:36:44.593Z,10.70
2018-05-09T05:39:12.358Z,6.80
2018-05-09T05:41:39.988Z,9.27
2018-05-09T05:44:08.388Z,8.03
2018-05-09T05:46:36.014Z,9.40
2018-05-09T05:49:03.602Z,8.43
2018-05-09T05:51:31.204Z,9.10
2018-05-09T05:53:58.813Z,4.67
2018-05-09T05:56:26.376Z,8.00
2018-05-09T05:58:53.928Z,7.27
2018-05-09T06:01:21.512Z,6.40
2018-05-09T06:03:49.083Z,7.70
2018-05-09T06:06:16.676Z,6.37
2018-05-09T06:08:44.249Z,6.83
2018-05-09T06:11:11.796Z,6.33
2018-05-09T06:13:39.440Z,9.30
2018-05-09T06:16:07.384Z,13.47
2018-05-09T06:18:35.023Z,8.33
2018-05-09T06:21:02.573Z,6.37
2018-05-09T06:23:30.241Z,6.83
2018-05-09T06:25:57.879Z,8.17
2018-05-09T06:28:25.468Z,6.20
2018-05-09T06:30:53.123Z,7.37
2018-05-09T06:33:20.728Z,9.73
2018-05-09T06:35:48.266Z,5.93
2018-05-09T06:38:15.860Z,5.77
2018-05-09T06:40:43.396Z,5.60
2018-05-09T06:43:11.047Z,8.43
2018-05-09T06:45:38.608Z,8.53
2018-05-09T06:48:06.225Z,4.67
2018-05-09T06:50:34.686Z,7.47
2018-05-09T06:53:02.232Z,6.73
2018-05-09T06:55:29.872Z,9.83
2018-05-09T06:57:57.458Z,5.53
2018-05-09T07:00:25.036Z,5.63
2018-05-09T07:02:52.689Z,5.93
2018-05-09T07:05:20.308Z,6.37
2018-05-09T07:07:47.853Z,5.07
2018-05-09T07:10:15.461Z,5.30
2018-05-09T07:12:43.141Z,5.70
2018-05-09T07:15:10.690Z,5.33
2018-05-09T07:17:38.302Z,4.97
2018-05-09T07:20:05.944Z,10.70
2018-05-09T07:22:33.569Z,6.53
2018-05-09T07:25:01.193Z,5.97
2018-05-09T07:27:28.779Z,5.40
2018-05-09T07:29:56.355Z,4.63
2018-05-09T07:32:23.879Z,6.40
2018-05-09T07:34:51.742Z,9.77
2018-05-09T07:37:19.277Z,5.47
2018-05-09T07:39:46.818Z,5.10
2018-05-09T07:42:14.420Z,5.78
2018-05-09T07:44:41.928Z,5.40
2018-05-09T07:47:09.450Z,4.87
2018-05-09T07:49:37.001Z,5.87
2018-05-09T07:52:04.519Z,5.00
2018-05-09T07:54:32.124Z,8.55
2018-05-09T07:56:59.657Z,5.45
2018-05-09T07:59:27.205Z,5.20
2018-05-09T08:01:54.745Z,6.32
2018-05-09T08:04:22.309Z,5.00
2018-05-09T08:06:49.875Z,5.12
2018-05-09T08:09:17.437Z,10.07
2018-05-09T08:11:44.983Z,9.07
2018-05-09T08:14:12.551Z,7.10
2018-05-09T08:16:40.086Z,6.70
2018-05-09T08:19:07.665Z,5.32
2018-05-09T08:21:35.235Z,5.97
2018-05-09T08:24:05.422Z,5.65
2018-05-09T08:26:33.124Z,5.40
2018-05-09T08:29:00.703Z,5.43
2018-05-09T08:31:28.355Z,5.90
2018-05-09T08:33:55.963Z,4.80
2018-05-09T08:36:24.403Z,7.28
2018-05-09T08:38:51.996Z,5.03
2018-05-09T08:41:19.559Z,4.65
2018-05-09T08:43:47.118Z,4.97
2018-05-09T08:46:14.728Z,6.47
2018-05-09T08:48:42.359Z,5.35
2018-05-09T08:51:09.908Z,4.90
2018-05-09T08:53:37.434Z,5.47
2018-05-09T08:56:05.648Z,4.60
2018-05-09T08:58:33.211Z,4.82
2018-05-09T09:01:00.916Z,8.68
2018-05-09T09:03:28.456Z,5.45
2018-05-09T09:05:56.017Z,4.78
2018-05-09T09:08:23.585Z,7.62
2018-05-09T09:10:51.140Z,8.13
2018-05-09T09:13:18.680Z,5.00
2018-05-09T09:15:46.224Z,5.45
2018-05-09T09:18:13.774Z,5.18
2018-05-09T09:20:41.335Z,5.35
2018-05-09T09:23:08.899Z,4.40
2018-05-09T09:25:37.553Z,5.03
2018-05-09T09:28:05.080Z,5.60
2018-05-09T09:30:32.637Z,5.20
2018-05-09T09:33:00.159Z,5.03
2018-05-09T09:35:27.720Z,4.70
2018-05-09T09:37:55.282Z,5.70
2018-05-09T09:40:22.929Z,4.97
2018-05-09T09:42:50.478Z,4.93
2018-05-09T09:45:18.139Z,4.75
2018-05-09T09:47:45.830Z,5.25
2018-05-09T09:50:13.414Z,7.35
2018-05-09T09:52:41.077Z,6.22
2018-05-09T09:55:08.610Z,5.57
2018-05-09T09:57:36.156Z,5.47
2018-05-09T10:00:03.715Z,6.20
2018-05-09T10:02:31.280Z,6.82
2018-05-09T10:04:58.812Z,4.43
2018-05-09T10:07:26.386Z,5.30
2018-05-09T10:09:53.908Z,6.32
2018-05-09T10:12:21.513Z,4.70
2018-05-09T10:14:49.057Z,5.65
2018-05-09T10:17:16.650Z,4.85
2018-05-09T10:19:44.185Z,5.00
2018-05-09T10:22:11.735Z,5.37
2018-05-09T10:24:39.299Z,4.70
2018-05-09T10:27:07.042Z,4.25
2018-05-09T10:29:34.611Z,4.12
2018-05-09T10:32:02.203Z,5.65
2018-05-09T10:34:29.740Z,4.22
2018-05-09T10:36:57.387Z,5.03
2018-05-09T10:39:24.936Z,4.93
2018-05-09T10:41:52.518Z,4.20
2018-05-09T10:44:20.087Z,4.18
2018-05-09T10:46:47.740Z,4.80
2018-05-09T10:49:15.308Z,4.18
2018-05-09T10:51:42.851Z,4.62
2018-05-09T10:54:10.395Z,8.40
2018-05-09T10:56:37.976Z,4.90
2018-05-09T10:59:05.517Z,4.30
2018-05-09T11:01:33.093Z,4.97
2018-05-09T11:04:00.659Z,4.93
2018-05-09T11:06:28.250Z,4.12
2018-05-09T11:08:55.798Z,3.95
2018-05-09T11:11:23.350Z,4.28
2018-05-09T11:13:50.891Z,4.82
2018-05-09T11:16:18.399Z,6.85
2018-05-09T11:18:46.047Z,7.03
2018-05-09T11:21:13.622Z,7.18
2018-05-09T11:23:41.160Z,4.60
2018-05-09T11:26:10.243Z,6.62
2018-05-09T11:28:37.828Z,4.55
2018-05-09T11:31:05.426Z,4.75
2018-05-09T11:33:33.019Z,4.93
2018-05-09T11:36:00.555Z,5.07
2018-05-09T11:38:28.126Z,5.05
2018-05-09T11:40:55.664Z,5.47
2018-05-09T11:43:23.217Z,4.25
2018-05-09T11:45:50.765Z,5.20
2018-05-09T11:48:19.490Z,4.97
2018-05-09T11:50:47.043Z,5.37
2018-05-09T11:53:15.095Z,6.62
2018-05-09T11:55:42.703Z,4.53
2018-05-09T11:58:10.264Z,5.00
2018-05-09T12:00:37.828Z,6.12
2018-05-09T12:03:05.382Z,5.72
2018-05-09T12:05:32.942Z,4.63
2018-05-09T12:08:01.437Z,4.97
2018-05-09T12:10:29.628Z,4.90
2018-05-09T12:12:57.208Z,5.33
2018-05-09T12:15:24.782Z,5.03
2018-05-09T12:17:52.358Z,5.40
2018-05-09T12:20:19.882Z,7.30
2018-05-09T12:22:47.429Z,5.13
2018-05-09T12:25:14.980Z,5.20
2018-05-09T12:27:42.617Z,5.40
2018-05-09T12:30:10.161Z,5.00
2018-05-09T12:32:37.717Z,5.40
2018-05-09T12:35:05.241Z,7.80
2018-05-09T12:37:32.812Z,6.73
2018-05-09T12:40:00.454Z,5.50
2018-05-09T12:42:28.119Z,5.40
2018-05-09T12:44:56.261Z,5.03
2018-05-09T12:47:23.814Z,8.47
2018-05-09T12:49:51.461Z,5.13
2018-05-09T12:52:19.032Z,7.00
2018-05-09T12:54:46.578Z,6.27
2018-05-09T12:57:15.078Z,6.00
2018-05-09T12:59:42.637Z,4.67
2018-05-09T13:02:10.247Z,6.63
2018-05-09T13:04:37.945Z,5.53
2018-05-09T13:07:05.513Z,8.40
2018-05-09T13:09:33.422Z,6.37
2018-05-09T13:12:00.940Z,5.47
2018-05-09T13:14:28.478Z,5.37
2018-05-09T13:16:56.057Z,5.40
2018-05-09T13:19:23.610Z,5.63
2018-05-09T13:21:51.129Z,5.40
2018-05-09T13:24:18.705Z,6.10
2018-05-09T13:26:46.297Z,5.13
2018-05-09T13:29:13.905Z,6.23
2018-05-09T13:31:41.501Z,6.90
2018-05-09T13:34:09.024Z,6.67
2018-05-09T13:36:36.615Z,5.73
2018-05-09T13:39:04.251Z,5.40
2018-05-09T13:41:31.777Z,5.50
2018-05-09T13:44:00.194Z,7.43
2018-05-09T13:46:27.842Z,6.13
2018-05-09T13:48:55.309Z,6.30
2018-05-09T13:51:22.855Z,5.57
2018-05-09T13:53:50.518Z,5.43
2018-05-09T13:56:17.955Z,6.10
2018-05-09T13:58:45.499Z,6.10
2018-05-09T14:01:13.022Z,6.03
2018-05-09T14:03:40.598Z,6.23
2018-05-09T14:06:08.196Z,5.83
2018-05-09T14:08:35.776Z,5.87
2018-05-09T14:11:03.316Z,5.53
2018-05-09T14:13:30.893Z,5.70
2018-05-09T14:15:58.442Z,9.20
2018-05-09T14:18:26.065Z,6.97
2018-05-09T14:20:53.704Z,6.50
2018-05-09T14:23:21.230Z,8.97
2018-05-09T14:25:48.782Z,4.87
2018-05-09T14:28:16.316Z,5.53
2018-05-09T14:30:46.407Z,6.27
2018-05-09T14:33:14.145Z,6.87
2018-05-09T14:35:41.709Z,5.97
2018-05-09T14:38:09.377Z,5.50
2018-05-09T14:40:36.989Z,6.57
2018-05-09T14:43:04.504Z,5.47
2018-05-09T14:45:32.086Z,5.37
2018-05-09T14:48:02.487Z,6.53
2018-05-09T14:50:30.124Z,8.40
2018-05-09T14:52:57.676Z,7.73
2018-05-09T14:55:25.265Z,5.97
2018-05-09T14:57:52.799Z,5.67
2018-05-09T15:00:20.469Z,8.00
2018-05-09T15:02:48.001Z,8.53
2018-05-09T15:05:15.583Z,8.17
2018-05-09T15:07:43.167Z,7.60
2018-05-09T15:10:10.782Z,7.03
2018-05-09T15:12:38.435Z,6.97
2018-05-09T15:15:06.474Z,6.10
2018-05-09T15:17:34.067Z,5.57
2018-05-09T15:20:01.720Z,7.47
2018-05-09T15:22:29.412Z,6.17
2018-05-09T15:24:57.078Z,7.27
2018-05-09T15:27:24.725Z,5.33
2018-05-09T15:29:52.362Z,6.67
2018-05-09T15:32:19.971Z,7.53
2018-05-09T15:34:47.595Z,5.83
2018-05-09T15:37:15.209Z,7.47
2018-05-09T15:39:42.872Z,6.47
2018-05-09T15:42:10.451Z,8.03
2018-05-09T15:44:38.104Z,5.60
2018-05-09T15:47:06.008Z,5.87
2018-05-09T15:49:33.703Z,6.53
2018-05-09T15:52:01.442Z,6.07
2018-05-09T15:54:29.294Z,6.67
2018-05-09T15:56:57.010Z,7.03
2018-05-09T15:59:24.972Z,5.87
2018-05-09T16:01:52.624Z,6.40
2018-05-09T16:04:21.004Z,7.40
2018-05-09T16:06:48.536Z,7.40
2018-05-09T16:09:16.099Z,6.20
2018-05-09T16:11:43.693Z,6.40
2018-05-09T16:14:11.268Z,6.97
2018-05-09T16:16:38.917Z,6.67
2018-05-09T16:19:06.441Z,7.50
2018-05-09T16:21:34.016Z,6.97
2018-05-09T16:24:02.485Z,7.20
2018-05-09T16:26:30.112Z,7.53
2018-05-09T16:28:59.573Z,10.37
2018-05-09T16:31:27.114Z,7.27
2018-05-09T16:33:54.661Z,8.83
2018-05-09T16:36:22.315Z,8.73
2018-05-09T16:38:49.794Z,8.43
2018-05-09T16:41:17.364Z,7.37
2018-05-09T16:43:44.942Z,7.83
2018-05-09T16:46:12.498Z,7.17
2018-05-09T16:48:40.033Z,9.00
2018-05-09T16:51:07.599Z,7.07
2018-05-09T16:53:35.163Z,13.77
2018-05-09T16:56:02.752Z,11.07
2018-05-09T16:58:30.325Z,10.60
2018-05-09T17:00:57.868Z,7.17
2018-05-09T17:03:25.444Z,8.03
2018-05-09T17:05:53.013Z,8.00
2018-05-09T17:08:20.541Z,12.27
2018-05-09T17:10:48.130Z,10.90
2018-05-09T17:13:15.647Z,9.97
2018-05-09T17:15:43.868Z,13.17
2018-05-09T17:18:11.410Z,9.07
2018-05-09T17:20:39.032Z,11.83
2018-05-09T17:23:06.608Z,8.23
2018-05-09T17:25:34.152Z,10.83
2018-05-09T17:28:01.719Z,13.57
2018-05-09T17:30:29.347Z,8.00
2018-05-09T17:32:56.869Z,7.80
2018-05-09T17:35:24.426Z,8.47
2018-05-09T17:37:52.000Z,7.33
2018-05-09T17:40:19.559Z,13.67
2018-05-09T17:42:47.112Z,11.73
2018-05-09T17:45:14.826Z,11.53
2018-05-09T17:47:42.412Z,6.73
2018-05-09T17:50:10.000Z,6.23
2018-05-09T17:52:37.575Z,9.50
2018-05-09T17:55:05.177Z,15.67
2018-05-09T17:57:32.782Z,8.67
2018-05-09T18:00:00.367Z,12.50
2018-05-09T18:02:27.950Z,10.30
2018-05-09T18:04:55.516Z,8.60
2018-05-09T18:07:23.104Z,8.13
2018-05-09T18:09:50.689Z,7.27
2018-05-09T18:12:18.226Z,7.60
2018-05-09T18:14:45.819Z,10.87
2018-05-09T18:17:13.571Z,7.00
2018-05-09T18:19:41.176Z,9.27
2018-05-09T18:22:08.755Z,5.97
2018-05-09T18:24:36.316Z,6.97
2018-05-09T18:27:03.882Z,8.00
2018-05-09T18:29:31.450Z,8.57
2018-05-09T18:31:59.068Z,8.77
2018-05-09T18:34:26.865Z,6.33
2018-05-09T18:36:54.447Z,8.90
2018-05-09T18:39:21.977Z,9.07
2018-05-09T18:41:49.517Z,6.93
2018-05-09T18:44:17.119Z,7.07
2018-05-09T18:46:44.673Z,9.80
2018-05-09T18:49:12.249Z,14.00
2018-05-09T18:51:39.792Z,10.27
2018-05-09T18:54:07.475Z,10.87
2018-05-09T18:56:35.007Z,5.93
2018-05-09T18:59:02.576Z,6.43
2018-05-09T19:01:30.159Z,6.17
2018-05-09T19:03:57.738Z,8.00
2018-05-09T19:06:25.425Z,9.17
2018-05-09T19:08:52.953Z,9.33
2018-05-09T19:11:20.496Z,6.43
2018-05-09T19:13:48.076Z,7.10
2018-05-09T19:16:15.659Z,7.53
2018-05-09T19:18:43.259Z,10.13
2018-05-09T19:21:10.907Z,10.37
2018-05-09T19:23:38.438Z,9.13
2018-05-09T19:26:06.053Z,10.37
2018-05-09T19:28:33.659Z,9.40
2018-05-09T19:31:01.246Z,13.00
2018-05-09T19:33:29.128Z,6.37
2018-05-09T19:35:56.902Z,10.53
2018-05-09T19:38:24.466Z,5.77
2018-05-09T19:40:52.063Z,5.87
2018-05-09T19:43:19.657Z,11.23
2018-05-09T19:45:47.199Z,6.90
2018-05-09T19:48:14.824Z,9.83
2018-05-09T19:50:42.380Z,11.50
2018-05-09T19:53:09.951Z,6.93
2018-05-09T19:55:37.517Z,6.33
2018-05-09T19:58:05.085Z,6.13
2018-05-09T20:00:32.674Z,7.17
2018-05-09T20:03:00.260Z,9.07
2018-05-09T20:05:27.846Z,7.37
2018-05-09T20:07:55.466Z,10.27
2018-05-09T20:10:23.054Z,10.93
2018-05-09T20:12:50.645Z,10.07
2018-05-09T20:15:18.264Z,11.20
2018-05-09T20:17:45.905Z,9.40
2018-05-09T20:20:13.483Z,8.40
2018-05-09T20:22:41.057Z,8.33
2018-05-09T20:25:08.675Z,9.83
2018-05-09T20:27:36.264Z,7.97
2018-05-09T20:30:03.837Z,9.53
2018-05-09T20:32:42.418Z,7.87
2018-05-09T20:35:09.976Z,6.53
2018-05-09T20:37:37.565Z,8.93
2018-05-09T20:40:05.299Z,7.37
2018-05-09T20:42:32.889Z,7.00
2018-05-09T20:45:00.448Z,7.50
2018-05-09T20:47:27.988Z,6.63
2018-05-09T20:49:55.552Z,6.87
2018-05-09T20:52:23.109Z,9.23
2018-05-09T20:54:50.674Z,10.30
2018-05-09T20:57:18.355Z,12.80
2018-05-09T20:59:45.934Z,10.67
2018-05-09T21:02:13.582Z,10.27
2018-05-09T21:04:41.243Z,16.00
2018-05-09T21:07:08.857Z,13.57
2018-05-09T21:09:36.458Z,12.50
2018-05-09T21:12:09.888Z,10.93
2018-05-09T21:14:37.602Z,11.13
2018-05-09T21:17:05.179Z,7.17
2018-05-09T21:19:32.781Z,8.10
2018-05-09T21:22:00.389Z,8.30
2018-05-09T21:24:28.011Z,9.77
2018-05-09T21:26:55.603Z,8.07
2018-05-09T21:29:23.157Z,11.43
2018-05-09T21:31:50.773Z,10.67
2018-05-09T21:34:18.314Z,11.13
2018-05-09T21:36:45.874Z,12.10
2018-05-09T21:39:13.425Z,13.80
2018-05-09T21:41:40.947Z,10.60
2018-05-09T21:44:08.555Z,11.37
2018-05-09T21:46:36.144Z,11.87
2018-05-09T21:49:03.669Z,14.27
2018-05-09T21:51:31.229Z,12.90
2018-05-09T21:53:58.770Z,14.30
2018-05-09T21:56:26.324Z,11.20
2018-05-09T21:58:53.860Z,10.70
2018-05-09T22:01:23.254Z,10.03
2018-05-09T22:03:50.825Z,12.43
2018-05-09T22:06:18.401Z,10.67
2018-05-09T22:08:46.139Z,11.27
2018-05-09T22:11:13.677Z,11.43
2018-05-09T22:13:41.232Z,12.47
2018-05-09T22:16:08.808Z,10.03
2018-05-09T22:18:36.355Z,11.57
2018-05-09T22:21:03.940Z,10.33
2018-05-09T22:23:31.485Z,11.63
2018-05-09T22:25:59.062Z,12.33
2018-05-09T22:28:26.629Z,13.33
2018-05-09T22:30:54.205Z,9.70
2018-05-09T22:33:21.842Z,11.70
2018-05-09T22:35:49.411Z,11.73
2018-05-09T22:38:17.075Z,11.00
2018-05-09T22:40:44.651Z,9.30
2018-05-09T22:43:12.196Z,9.93
2018-05-09T22:45:39.832Z,9.47
2018-05-09T22:48:07.408Z,12.43
2018-05-09T22:50:34.984Z,12.63
2018-05-09T22:53:02.533Z,14.80
2018-05-09T22:55:30.124Z,12.50
2018-05-09T22:57:57.715Z,10.27
2018-05-09T23:00:25.995Z,14.23
2018-05-09T23:02:53.576Z,15.50
2018-05-09T23:05:21.126Z,17.70
2018-05-09T23:07:48.673Z,26.33
2018-05-09T23:10:16.341Z,26.40
2018-05-09T23:12:43.863Z,28.23
2018-05-09T23:15:11.405Z,26.57
2018-05-09T23:17:38.976Z,30.53
2018-05-09T23:20:06.509Z,24.60
2018-05-09T23:22:34.061Z,21.30
2018-05-09T23:25:01.608Z,22.83
2018-05-09T23:27:29.193Z,25.17
2018-05-09T23:29:56.762Z,27.43
2018-05-09T23:32:24.341Z,27.70
2018-05-09T23:34:51.914Z,35.23
2018-05-09T23:37:19.533Z,32.43
2018-05-09T23:39:48.150Z,33.37
2018-05-09T23:42:15.721Z,33.17
2018-05-09T23:44:43.281Z,33.60
2018-05-09T23:47:10.853Z,30.60
2018-05-09T23:49:38.393Z,36.30
2018-05-09T23:52:06.008Z,39.20
2018-05-09T23:54:33.512Z,39.90
2018-05-09T23:57:01.082Z,36.43
2018-05-09T23:59:28.616Z,40.00
